createdAt,value
2023-05-23T00:00:46.073Z,9.711886
2023-05-23T00:01:45.996Z,9.711796
2023-05-23T00:02:46.007Z,9.711646
2023-05-23T00:03:46.007Z,9.711677
2023-05-23T00:04:45.921Z,9.711660
2023-05-23T00:05:45.925Z,9.711637
2023-05-23T00:06:45.900Z,9.711695
2023-05-23T00:07:45.909Z,9.711779
2023-05-23T00:08:45.906Z,9.711648
2023-05-23T00:09:45.878Z,9.711621
2023-05-23T00:10:45.877Z,9.711687
2023-05-23T00:11:46.018Z,9.711659
2023-05-23T00:12:45.851Z,9.711653
2023-05-23T00:13:45.846Z,9.711628
2023-05-23T00:14:45.876Z,9.711653
2023-05-23T00:15:45.859Z,9.711680
2023-05-23T00:16:48.699Z,9.711756
2023-05-23T00:17:45.825Z,9.711756
2023-05-23T00:18:46.044Z,9.711690
2023-05-23T00:19:45.832Z,9.711725
2023-05-23T00:36:37.252Z,9.711662
2023-05-23T00:37:37.249Z,9.711608
2023-05-23T00:38:37.247Z,9.711602
2023-05-23T00:39:37.263Z,9.711625
2023-05-23T00:40:37.219Z,9.711617
2023-05-23T00:41:37.227Z,9.711629
2023-05-23T00:42:37.226Z,9.711630
2023-05-23T00:43:37.192Z,9.711622
2023-05-23T00:44:37.182Z,9.711650
2023-05-23T00:45:37.194Z,9.711598
2023-05-23T00:46:37.258Z,9.711584
2023-05-23T00:47:37.188Z,9.711609
2023-05-23T00:48:37.275Z,9.711655
2023-05-23T00:49:37.150Z,9.711628
2023-05-23T00:50:37.138Z,9.711693
2023-05-23T00:51:37.123Z,9.711699
2023-05-23T00:52:37.116Z,9.711705
2023-05-23T00:53:37.126Z,9.711745
2023-05-23T00:54:37.096Z,9.711684
2023-05-23T00:55:37.134Z,9.711723
2023-05-23T00:56:37.089Z,9.711716
2023-05-23T00:57:37.094Z,9.711720
2023-05-23T00:58:37.073Z,9.711660
2023-05-23T00:59:37.086Z,9.711626
2023-05-23T01:00:37.066Z,9.711683
2023-05-23T01:01:37.115Z,9.711746
2023-05-23T01:02:37.128Z,9.711754
2023-05-23T01:03:37.076Z,9.711752
2023-05-23T01:04:37.170Z,9.711750
2023-05-23T01:05:37.026Z,9.711811
2023-05-23T01:06:37.025Z,9.711793
2023-05-23T01:07:37.006Z,9.711823
2023-05-23T01:08:37.013Z,9.711785
2023-05-23T01:09:37.011Z,9.711721
2023-05-23T01:10:36.976Z,9.711720
2023-05-23T01:11:37.720Z,9.711769
2023-05-23T01:12:36.994Z,9.711713
2023-05-23T01:13:36.952Z,9.711727
2023-05-23T01:14:36.957Z,9.711670
2023-05-23T01:15:36.969Z,9.711616
2023-05-23T01:16:36.950Z,9.711705
2023-05-23T01:17:37.020Z,9.711660
2023-05-23T01:18:36.915Z,9.711721
2023-05-23T01:19:36.910Z,9.711654
2023-05-23T01:20:36.990Z,9.711749
2023-05-23T01:21:36.990Z,9.711662
2023-05-23T01:22:36.950Z,9.711721
2023-05-23T01:23:36.912Z,9.711779
2023-05-23T01:24:36.861Z,9.711780
2023-05-23T01:25:36.853Z,9.711989
2023-05-23T01:26:36.849Z,9.711609
2023-05-23T01:27:36.844Z,9.711852
2023-05-23T01:28:36.846Z,9.711691
2023-05-23T01:29:36.853Z,9.711650
2023-05-23T01:30:36.840Z,9.711648
2023-05-23T01:31:36.883Z,9.711649
2023-05-23T01:32:36.850Z,9.711703
2023-05-23T01:33:36.798Z,9.711783
2023-05-23T01:34:36.798Z,9.711753
2023-05-23T01:35:36.783Z,9.711484
2023-05-23T01:36:36.877Z,9.711482
2023-05-23T01:37:36.781Z,9.711655
2023-05-23T01:38:36.805Z,9.711603
2023-05-23T01:39:36.765Z,9.711482
2023-05-23T01:40:36.738Z,9.711375
2023-05-23T01:41:36.740Z,9.711637
2023-05-23T01:42:36.743Z,9.711499
2023-05-23T01:43:36.721Z,9.711537
2023-05-23T01:44:36.708Z,9.711698
2023-05-23T01:45:36.753Z,9.711657
2023-05-23T01:46:36.687Z,9.711605
2023-05-23T01:47:36.739Z,9.711591
2023-05-23T01:48:36.685Z,9.711564
2023-05-23T01:49:36.668Z,9.711625
2023-05-23T01:50:36.674Z,9.711711
2023-05-23T01:51:36.661Z,9.711875
2023-05-23T01:52:36.752Z,9.711717
2023-05-23T01:53:36.648Z,9.711702
2023-05-23T01:54:36.628Z,9.711822
2023-05-23T01:55:36.676Z,9.711675
2023-05-23T01:56:36.640Z,9.711943
2023-05-23T01:57:36.618Z,9.711951
2023-05-23T01:58:36.602Z,9.711922
2023-05-23T01:59:36.592Z,9.712018
2023-05-23T02:00:36.589Z,9.711853
2023-05-23T02:01:36.639Z,9.711783
2023-05-23T02:02:36.626Z,9.711733
2023-05-23T02:03:36.624Z,9.711745
2023-05-23T02:04:36.552Z,9.711654
2023-05-23T02:05:36.534Z,9.711642
2023-05-23T02:06:37.177Z,9.711581
2023-05-23T02:07:36.529Z,9.711578
2023-05-23T02:08:36.650Z,9.711637
2023-05-23T02:09:36.538Z,9.711706
2023-05-23T02:10:36.510Z,9.711665
2023-05-23T02:11:36.499Z,9.711649
2023-05-23T02:12:36.514Z,9.711614
2023-05-23T02:13:36.484Z,9.711628
2023-05-23T02:14:36.488Z,9.711635
2023-05-23T02:15:36.466Z,9.711623
2023-05-23T02:16:36.663Z,9.711596
2023-05-23T02:17:36.477Z,9.711575
2023-05-23T02:18:36.450Z,9.711579
2023-05-23T02:19:36.575Z,9.711583
2023-05-23T02:20:36.456Z,9.711580
2023-05-23T02:21:36.430Z,9.711600
2023-05-23T02:22:36.420Z,9.711627
2023-05-23T02:23:36.416Z,9.711654
2023-05-23T02:24:36.505Z,9.711649
2023-05-23T02:25:36.394Z,9.711609
2023-05-23T02:26:36.395Z,9.711612
2023-05-23T02:27:36.389Z,9.711684
2023-05-23T02:28:36.370Z,9.711596
2023-05-23T02:29:36.358Z,9.711629
2023-05-23T02:30:36.353Z,9.711607
2023-05-23T02:31:36.387Z,9.711651
2023-05-23T02:32:36.470Z,9.711669
2023-05-23T02:33:36.346Z,9.711652
2023-05-23T02:34:36.323Z,9.711643
2023-05-23T02:35:36.298Z,9.711667
2023-05-23T02:36:36.308Z,9.711637
2023-05-23T02:37:36.293Z,9.711625
2023-05-23T02:38:36.293Z,9.711643
2023-05-23T02:39:36.269Z,9.711664
2023-05-23T02:40:36.386Z,9.711662
2023-05-23T02:41:36.289Z,9.711704
2023-05-23T02:42:36.240Z,9.711632
2023-05-23T02:43:36.251Z,9.711692
2023-05-23T02:44:36.240Z,9.711616
2023-05-23T02:45:36.227Z,9.711639
2023-05-23T02:46:36.329Z,9.711668
2023-05-23T02:47:36.258Z,9.711711
2023-05-23T02:48:36.226Z,9.711638
2023-05-23T02:49:36.189Z,9.711710
2023-05-23T02:50:37.191Z,9.711764
2023-05-23T02:51:36.175Z,9.711598
2023-05-23T02:52:36.177Z,9.711772
2023-05-23T02:53:36.184Z,9.711827
2023-05-23T02:54:36.179Z,9.711943
2023-05-23T02:55:36.166Z,9.711613
2023-05-23T02:56:36.242Z,9.711736
2023-05-23T02:57:36.135Z,9.711693
2023-05-23T02:58:36.169Z,9.711616
2023-05-23T02:59:36.149Z,9.711687
2023-05-23T03:00:36.114Z,9.711871
2023-05-23T03:01:36.123Z,9.711645
2023-05-23T03:02:36.138Z,9.711770
2023-05-23T03:03:36.161Z,9.711558
2023-05-23T03:04:36.072Z,9.711736
2023-05-23T03:05:36.067Z,9.711658
2023-05-23T03:06:36.063Z,9.711695
2023-05-23T03:07:36.057Z,9.711813
2023-05-23T03:08:36.041Z,9.711802
2023-05-23T03:09:36.062Z,9.711695
2023-05-23T03:10:36.050Z,9.711766
2023-05-23T03:11:36.071Z,9.711752
2023-05-23T03:12:36.119Z,9.711780
2023-05-23T03:13:36.003Z,9.711737
2023-05-23T03:14:35.985Z,9.711748
2023-05-23T03:15:36.002Z,9.711635
2023-05-23T03:16:36.065Z,9.711676
2023-05-23T03:17:36.008Z,9.711694
2023-05-23T03:18:35.994Z,9.711658
2023-05-23T03:19:36.690Z,9.711748
2023-05-23T03:20:36.945Z,9.711741
2023-05-23T03:21:35.942Z,9.711805
2023-05-23T03:22:35.937Z,9.711715
2023-05-23T03:23:35.927Z,9.711779
2023-05-23T03:24:36.757Z,9.711696
2023-05-23T03:25:35.912Z,9.711604
2023-05-23T03:26:35.904Z,9.711539
2023-05-23T03:27:35.882Z,9.711677
2023-05-23T03:28:35.996Z,9.711609
2023-05-23T03:29:35.880Z,9.711603
2023-05-23T03:30:35.855Z,9.711592
2023-05-23T03:31:36.890Z,9.711588
2023-05-23T03:32:35.884Z,9.711653
2023-05-23T03:33:38.239Z,9.711648
2023-05-23T03:34:37.180Z,9.711615
2023-05-23T03:35:35.817Z,9.711629
2023-05-23T03:36:36.752Z,9.711622
2023-05-23T03:37:35.806Z,9.711577
2023-05-23T03:38:35.798Z,9.711616
2023-05-23T03:39:36.413Z,9.711659
2023-05-23T03:40:37.191Z,9.711617
2023-05-23T03:41:35.791Z,9.711639
2023-05-23T03:42:35.767Z,9.711670
2023-05-23T03:43:35.766Z,9.711710
2023-05-23T03:44:36.814Z,9.711665
2023-05-23T03:45:42.985Z,9.711659
2023-05-23T03:46:39.676Z,9.711686
2023-05-23T03:47:36.683Z,9.711710
2023-05-23T03:48:35.769Z,9.711781
2023-05-23T03:49:35.812Z,9.711769
2023-05-23T03:50:36.694Z,9.711791
2023-05-23T03:51:35.777Z,9.711875
2023-05-23T03:52:35.710Z,9.711846
2023-05-23T03:53:36.701Z,9.711738
2023-05-23T03:54:36.721Z,9.711718
2023-05-23T03:55:35.673Z,9.711739
2023-05-23T03:56:35.676Z,9.711728
2023-05-23T03:57:36.270Z,9.711598
2023-05-23T03:58:35.656Z,9.711623
2023-05-23T03:59:35.659Z,9.711561
2023-05-23T04:00:35.745Z,9.711596
2023-05-23T04:01:35.634Z,9.711652
2023-05-23T04:02:35.649Z,9.711842
2023-05-23T04:03:35.903Z,9.711808
2023-05-23T04:04:35.672Z,9.711773
2023-05-23T04:05:35.608Z,9.711923
2023-05-23T04:06:35.598Z,9.711763
2023-05-23T04:07:35.573Z,9.711856
2023-05-23T04:08:35.608Z,9.711857
2023-05-23T04:09:35.547Z,9.711718
2023-05-23T04:10:35.561Z,9.711759
2023-05-23T04:11:35.553Z,9.711960
2023-05-23T04:12:35.536Z,9.711788
2023-05-23T04:13:35.610Z,9.711644
2023-05-23T04:14:35.533Z,9.711694
2023-05-23T04:15:35.522Z,9.711629
2023-05-23T04:16:35.687Z,9.711699
2023-05-23T04:17:35.532Z,9.711732
2023-05-23T04:18:35.505Z,9.711798
2023-05-23T04:19:35.560Z,9.711763
2023-05-23T04:20:36.191Z,9.711772
2023-05-23T04:21:35.473Z,9.711765
2023-05-23T04:22:35.464Z,9.711576
2023-05-23T04:23:35.458Z,9.711589
2023-05-23T04:24:35.451Z,9.711812
2023-05-23T04:25:35.443Z,9.711687
2023-05-23T04:26:35.435Z,9.711666
2023-05-23T04:27:35.977Z,9.711861
2023-05-23T04:28:35.429Z,9.711851
2023-05-23T04:29:35.404Z,9.711734
2023-05-23T04:30:35.392Z,9.711579
2023-05-23T04:31:35.498Z,9.711488
2023-05-23T04:32:35.528Z,9.711604
2023-05-23T04:33:35.382Z,9.711946
2023-05-23T04:34:35.384Z,9.712177
2023-05-23T04:35:35.363Z,9.712168
2023-05-23T04:36:35.360Z,9.711796
2023-05-23T04:37:35.345Z,9.711624
2023-05-23T04:38:35.349Z,9.711450
2023-05-23T04:39:35.332Z,9.711387
2023-05-23T04:40:35.322Z,9.711431
2023-05-23T04:41:36.360Z,9.711481
2023-05-23T04:42:35.314Z,9.711864
2023-05-23T04:43:35.305Z,9.712135
2023-05-23T04:44:35.303Z,9.712134
2023-05-23T04:45:35.284Z,9.712172
2023-05-23T04:46:35.299Z,9.711748
2023-05-23T04:47:37.294Z,9.711596
2023-05-23T04:48:36.402Z,9.711378
2023-05-23T04:49:35.245Z,9.711947
2023-05-23T04:50:35.240Z,9.712075
2023-05-23T04:51:35.225Z,9.712632
2023-05-23T04:52:35.228Z,9.712750
2023-05-23T04:53:35.224Z,9.712277
2023-05-23T04:54:35.208Z,9.712405
2023-05-23T04:55:35.202Z,9.712314
2023-05-23T04:56:35.200Z,9.712296
2023-05-23T04:57:35.188Z,9.712375
2023-05-23T04:58:35.192Z,9.712389
2023-05-23T04:59:35.233Z,9.712277
2023-05-23T05:00:35.204Z,9.712151
2023-05-23T05:01:35.227Z,9.712191
2023-05-23T05:02:35.186Z,9.712186
2023-05-23T05:03:35.152Z,9.712268
2023-05-23T05:04:35.749Z,9.712021
2023-05-23T05:05:35.126Z,9.712045
2023-05-23T05:06:35.158Z,9.712105
2023-05-23T05:07:35.147Z,9.712308
2023-05-23T05:08:35.095Z,9.711860
2023-05-23T05:09:35.117Z,9.711904
2023-05-23T05:10:35.720Z,9.712008
2023-05-23T05:11:35.110Z,9.711900
2023-05-23T05:12:35.056Z,9.712083
2023-05-23T05:13:36.730Z,9.712047
2023-05-23T05:14:35.063Z,9.712272
2023-05-23T05:15:35.111Z,9.711944
2023-05-23T05:16:35.055Z,9.712094
2023-05-23T05:17:35.033Z,9.712007
2023-05-23T05:18:35.027Z,9.712216
2023-05-23T05:19:35.076Z,9.711810
2023-05-23T05:20:35.122Z,9.712111
2023-05-23T05:21:34.979Z,9.712007
2023-05-23T05:22:34.988Z,9.712009
2023-05-23T05:23:34.981Z,9.712272
2023-05-23T05:24:34.958Z,9.712033
2023-05-23T05:25:34.962Z,9.711829
2023-05-23T05:26:34.947Z,9.711759
2023-05-23T05:27:34.948Z,9.711712
2023-05-23T05:28:34.928Z,9.711650
2023-05-23T05:29:34.928Z,9.711731
2023-05-23T05:30:35.719Z,9.711794
2023-05-23T05:31:35.008Z,9.711762
2023-05-23T05:32:34.948Z,9.711761
2023-05-23T05:33:34.890Z,9.711735
2023-05-23T05:34:34.891Z,9.711729
2023-05-23T05:35:34.890Z,9.711826
2023-05-23T05:36:34.977Z,9.711763
2023-05-23T05:37:35.795Z,9.711806
2023-05-23T05:38:34.902Z,9.711797
2023-05-23T05:39:34.846Z,9.711770
2023-05-23T05:40:34.847Z,9.711720
2023-05-23T05:41:34.835Z,9.711746
2023-05-23T05:42:34.813Z,9.711776
2023-05-23T05:43:35.737Z,9.711789
2023-05-23T05:44:34.804Z,9.711664
2023-05-23T05:45:36.741Z,9.711718
2023-05-23T05:46:34.825Z,9.711804
2023-05-23T05:47:34.852Z,9.711843
2023-05-23T05:48:34.899Z,9.711880
2023-05-23T05:49:34.761Z,9.711894
2023-05-23T05:50:34.775Z,9.711897
2023-05-23T05:51:34.748Z,9.711772
2023-05-23T05:52:34.853Z,9.711790
2023-05-23T05:53:34.768Z,9.711706
2023-05-23T05:54:34.725Z,9.711781
2023-05-23T05:55:34.721Z,9.711924
2023-05-23T05:56:34.720Z,9.711959
2023-05-23T05:57:36.241Z,9.711886
2023-05-23T05:58:34.696Z,9.711884
2023-05-23T05:59:35.245Z,9.711853
2023-05-23T06:00:34.774Z,9.711802
2023-05-23T06:01:34.677Z,9.711771
2023-05-23T06:02:34.773Z,9.711986
2023-05-23T06:03:34.818Z,9.712010
2023-05-23T06:04:34.732Z,9.712017
2023-05-23T06:28:42.357Z,9.711782
2023-05-23T06:29:42.354Z,9.711828
2023-05-23T06:30:42.605Z,9.711830
2023-05-23T06:31:42.362Z,9.711810
2023-05-23T06:32:42.407Z,9.711849
2023-05-23T06:33:42.323Z,9.711854
2023-05-23T06:34:42.327Z,9.711847
2023-05-23T06:35:42.836Z,9.711824
2023-05-23T06:36:42.302Z,9.711863
2023-05-23T06:37:42.319Z,9.711917
2023-05-23T06:38:42.312Z,9.711920
2023-05-23T06:39:42.323Z,9.711940
2023-05-23T06:40:42.481Z,9.711888
2023-05-23T06:41:42.262Z,9.711887
2023-05-23T06:42:42.249Z,9.711842
2023-05-23T06:43:42.267Z,9.711720
2023-05-23T06:44:42.235Z,9.711795
2023-05-23T06:45:42.847Z,9.711902
2023-05-23T06:46:42.226Z,9.711992
2023-05-23T06:47:42.263Z,9.712107
2023-05-23T06:48:42.201Z,9.711970
2023-05-23T06:49:42.218Z,9.711890
2023-05-23T06:50:42.571Z,9.711971
2023-05-23T06:51:42.314Z,9.711924
2023-05-23T06:52:42.199Z,9.711949
2023-05-23T06:53:42.156Z,9.711908
2023-05-23T06:54:42.157Z,9.711860
2023-05-23T06:55:42.257Z,9.711905
2023-05-23T06:56:42.148Z,9.711846
2023-05-23T06:57:42.177Z,9.711846
2023-05-23T07:01:51.115Z,9.711828
2023-05-23T07:02:50.475Z,9.711783
2023-05-23T07:03:50.354Z,9.711781
2023-05-23T07:04:50.324Z,9.711787
2023-05-23T07:05:52.231Z,9.711832
2023-05-23T07:06:51.154Z,9.711808
2023-05-23T07:07:50.296Z,9.711823
2023-05-23T07:08:50.301Z,9.711782
2023-05-23T07:09:51.125Z,9.711806
2023-05-23T07:10:50.377Z,9.711771
2023-05-23T07:11:50.291Z,9.711776
2023-05-23T07:12:50.247Z,9.711783
2023-05-23T07:13:50.277Z,9.711799
2023-05-23T07:14:53.629Z,9.711789
2023-05-23T07:15:50.262Z,9.711852
2023-05-23T07:19:58.165Z,9.710719
2023-05-23T07:20:58.137Z,9.711170
2023-05-23T07:21:58.137Z,9.710888
2023-05-23T07:22:58.142Z,9.711052
2023-05-23T07:23:58.117Z,9.711358
2023-05-23T07:24:58.133Z,9.711163
2023-05-23T07:26:02.371Z,9.711061
2023-05-23T07:27:00.110Z,9.711078
2023-05-23T07:27:58.119Z,9.711304
2023-05-23T07:28:59.010Z,9.711429
2023-05-23T07:29:58.107Z,9.711343
2023-05-23T07:30:58.124Z,9.711284
2023-05-23T07:31:58.060Z,9.711436
2023-05-23T07:32:58.088Z,9.711595
2023-05-23T07:33:58.497Z,9.711613
2023-05-23T07:34:58.070Z,9.711488
2023-05-23T07:35:58.021Z,9.711416
2023-05-23T07:36:58.019Z,9.711530
2023-05-23T07:37:58.020Z,9.711482
2023-05-23T07:38:58.008Z,9.711349
2023-05-23T07:39:58.005Z,9.711259
2023-05-23T07:41:07.395Z,9.711456
2023-05-23T07:41:59.971Z,9.711565
2023-05-23T07:42:57.961Z,9.711619
2023-05-23T07:43:58.023Z,9.711690
2023-05-23T07:44:57.986Z,9.711749
2023-05-23T07:45:57.950Z,9.711842
2023-05-23T07:46:57.996Z,9.711932
2023-05-23T07:47:58.031Z,9.711915
2023-05-23T07:48:57.913Z,9.711881
2023-05-23T07:49:57.922Z,9.711784
2023-05-23T07:50:57.917Z,9.712525
2023-05-23T07:51:57.889Z,9.713084
2023-05-23T07:52:57.886Z,9.712891
2023-05-23T07:53:57.879Z,9.712234
2023-05-23T07:54:57.867Z,9.711848
2023-05-23T07:55:57.857Z,9.711422
2023-05-23T07:56:57.848Z,9.711467
2023-05-23T07:57:57.868Z,9.712060
2023-05-23T07:58:57.837Z,9.712463
2023-05-23T07:59:57.856Z,9.712400
2023-05-23T08:00:57.819Z,9.712040
2023-05-23T08:01:57.903Z,9.711761
2023-05-23T08:02:57.814Z,9.711638
2023-05-23T08:03:57.824Z,9.711910
2023-05-23T08:04:57.784Z,9.712173
2023-05-23T08:05:57.768Z,9.711711
2023-05-23T08:07:04.893Z,9.711894
2023-05-23T08:07:59.778Z,9.711816
2023-05-23T08:08:57.752Z,9.711805
2023-05-23T08:09:57.792Z,9.711702
2023-05-23T08:10:57.748Z,9.711663
2023-05-23T08:11:57.810Z,9.711729
2023-05-23T08:12:57.716Z,9.711638
2023-05-23T08:13:59.427Z,9.711666
2023-05-23T08:14:57.702Z,9.711708
2023-05-23T08:15:57.730Z,9.711710
2023-05-23T08:16:57.764Z,9.711686
2023-05-23T08:17:57.741Z,9.711757
2023-05-23T08:18:57.709Z,9.711750
2023-05-23T08:19:57.714Z,9.711780
2023-05-23T08:20:57.654Z,9.711735
2023-05-23T08:21:57.785Z,9.711758
2023-05-23T08:22:57.690Z,9.711719
2023-05-23T08:23:57.638Z,9.711712
2023-05-23T08:24:57.638Z,9.711721
2023-05-23T08:25:57.645Z,9.711739
2023-05-23T08:26:57.610Z,9.711743
2023-05-23T08:27:57.605Z,9.711680
2023-05-23T08:28:57.589Z,9.711644
2023-05-23T08:29:57.596Z,9.711678
2023-05-23T08:30:57.582Z,9.711650
2023-05-23T08:31:57.589Z,9.711582
2023-05-23T08:32:57.619Z,9.711647
2023-05-23T08:33:57.562Z,9.711649
2023-05-23T08:34:57.566Z,9.711654
2023-05-23T08:35:58.460Z,9.711616
2023-05-23T08:36:57.551Z,9.711606
2023-05-23T08:37:57.551Z,9.711626
2023-05-23T08:38:57.538Z,9.711625
2023-05-23T08:39:58.029Z,9.711596
2023-05-23T08:40:57.503Z,9.711587
2023-05-23T08:41:57.495Z,9.711615
2023-05-23T08:42:58.073Z,9.711624
2023-05-23T08:43:58.084Z,9.711629
2023-05-23T08:44:57.480Z,9.711615
2023-05-23T08:45:58.581Z,9.711627
2023-05-23T08:46:57.449Z,9.711629
2023-05-23T08:47:57.462Z,9.711652
2023-05-23T08:48:57.443Z,9.711603
2023-05-23T08:49:57.434Z,9.711584
2023-05-23T08:50:57.438Z,9.711586
2023-05-23T08:51:57.493Z,9.711559
2023-05-23T08:52:57.428Z,9.711579
2023-05-23T08:53:57.402Z,9.711592
2023-05-23T08:54:57.409Z,9.711571
2023-05-23T08:55:57.385Z,9.711480
2023-05-23T08:56:57.386Z,9.711522
2023-05-23T08:57:57.365Z,9.711505
2023-05-23T08:58:57.363Z,9.711558
2023-05-23T08:59:57.388Z,9.711535
2023-05-23T09:00:57.373Z,9.711493
2023-05-23T09:01:58.144Z,9.711492
2023-05-23T09:02:57.476Z,9.711502
2023-05-23T09:03:57.319Z,9.711460
2023-05-23T09:04:57.364Z,9.711512
2023-05-23T09:05:57.444Z,9.711472
2023-05-23T09:06:57.315Z,9.711486
2023-05-23T09:07:57.303Z,9.711558
2023-05-23T09:08:57.294Z,9.711546
2023-05-23T09:09:57.293Z,9.711495
2023-05-23T09:10:57.263Z,9.711734
2023-05-23T09:11:57.264Z,9.711693
2023-05-23T09:12:57.262Z,9.711584
2023-05-23T09:13:57.261Z,9.711381
2023-05-23T09:14:57.237Z,9.711357
2023-05-23T09:15:57.276Z,9.711574
2023-05-23T09:16:57.242Z,9.711622
2023-05-23T09:17:57.320Z,9.711548
2023-05-23T09:18:57.310Z,9.711421
2023-05-23T09:19:57.214Z,9.711396
2023-05-23T09:20:57.200Z,9.711572
2023-05-23T09:21:57.225Z,9.711540
2023-05-23T09:22:57.242Z,9.711404
2023-05-23T09:23:57.173Z,9.711637
2023-05-23T09:24:57.172Z,9.711577
2023-05-23T09:25:57.967Z,9.711902
2023-05-23T09:26:57.179Z,9.711864
2023-05-23T09:27:57.141Z,9.711663
2023-05-23T09:28:57.150Z,9.711682
2023-05-23T09:29:57.139Z,9.711542
2023-05-23T09:30:57.153Z,9.711517
2023-05-23T09:31:57.313Z,9.711731
2023-05-23T09:33:00.196Z,9.711897
2023-05-23T09:33:57.105Z,9.711416
2023-05-23T09:47:05.515Z,9.711694
2023-05-23T09:48:05.487Z,9.711488
2023-05-23T09:49:05.465Z,9.711488
2023-05-23T09:50:05.432Z,9.711488
2023-05-23T09:51:05.439Z,9.711573
2023-05-23T09:52:05.428Z,9.711798
2023-05-23T09:53:05.444Z,9.711506
2023-05-23T09:54:06.405Z,9.711417
2023-05-23T09:55:05.391Z,9.711479
2023-05-23T09:56:05.426Z,9.712168
2023-05-23T09:57:06.033Z,9.711733
2023-05-23T09:58:05.373Z,9.711463
2023-05-23T09:59:05.353Z,9.710635
2023-05-23T10:00:06.379Z,9.710853
2023-05-23T10:01:05.393Z,9.711041
2023-05-23T10:02:05.354Z,9.711328
2023-05-23T10:03:05.392Z,9.711221
2023-05-23T10:04:05.403Z,9.711409
2023-05-23T10:05:06.866Z,9.711375
2023-05-23T10:06:05.310Z,9.711040
2023-05-23T10:07:05.307Z,9.711139
2023-05-23T10:08:05.331Z,9.711566
2023-05-23T10:09:05.341Z,9.711525
2023-05-23T10:10:05.287Z,9.711130
2023-05-23T10:11:05.281Z,9.711069
2023-05-23T10:12:05.268Z,9.711291
2023-05-23T10:13:05.248Z,9.711535
2023-05-23T10:14:05.254Z,9.711203
2023-05-23T10:15:05.245Z,9.711326
2023-05-23T10:16:05.837Z,9.711284
2023-05-23T10:17:05.266Z,9.711051
2023-05-23T10:18:05.224Z,9.711044
2023-05-23T10:19:05.237Z,9.711323
2023-05-23T10:20:05.822Z,9.711091
2023-05-23T10:21:05.184Z,9.711225
2023-05-23T10:22:05.203Z,9.711259
2023-05-23T10:23:05.194Z,9.711101
2023-05-23T10:24:05.355Z,9.711253
2023-05-23T10:25:05.213Z,9.711427
2023-05-23T10:26:05.220Z,9.711611
2023-05-23T10:27:05.155Z,9.711528
2023-05-23T10:28:05.215Z,9.711727
2023-05-23T10:29:05.134Z,9.711701
2023-05-23T10:30:05.118Z,9.711451
2023-05-23T10:31:06.162Z,9.711508
2023-05-23T10:32:05.103Z,9.711374
2023-05-23T10:33:06.163Z,9.711385
2023-05-23T10:34:05.105Z,9.711537
2023-05-23T10:35:05.079Z,9.711423
2023-05-23T10:36:05.115Z,9.711541
2023-05-23T10:37:05.066Z,9.711634
2023-05-23T10:38:05.047Z,9.711684
2023-05-23T10:39:05.047Z,9.711629
2023-05-23T10:40:05.055Z,9.711642
2023-05-23T10:41:05.049Z,9.711670
2023-05-23T10:42:05.095Z,9.711691
2023-05-23T10:43:05.003Z,9.711636
2023-05-23T10:44:05.056Z,9.711516
2023-05-23T10:45:04.985Z,9.711592
2023-05-23T10:46:05.141Z,9.711636
2023-05-23T10:47:05.054Z,9.711778
2023-05-23T10:48:05.020Z,9.711655
2023-05-23T10:49:04.964Z,9.711686
2023-05-23T10:50:04.979Z,9.711654
2023-05-23T10:51:05.827Z,9.711655
2023-05-23T10:52:04.934Z,9.711939
2023-05-23T10:53:04.941Z,9.712047
2023-05-23T10:54:04.923Z,9.711709
2023-05-23T10:55:04.918Z,9.711725
2023-05-23T10:56:05.436Z,9.711672
2023-05-23T10:57:04.964Z,9.711657
2023-05-23T10:58:04.900Z,9.711653
2023-05-23T10:59:04.899Z,9.711645
2023-05-23T11:00:04.873Z,9.711856
2023-05-23T11:01:04.909Z,9.711743
2023-05-23T11:02:04.874Z,9.711722
2023-05-23T11:03:04.955Z,9.711787
2023-05-23T11:04:04.901Z,9.711798
2023-05-23T11:05:04.837Z,9.711699
2023-05-23T11:06:04.854Z,9.711710
2023-05-23T11:07:05.823Z,9.711731
2023-05-23T11:08:04.839Z,9.711754
2023-05-23T11:09:07.045Z,9.711776
2023-05-23T11:10:05.820Z,9.711730
2023-05-23T11:11:06.322Z,9.711723
2023-05-23T11:12:04.823Z,9.711789
2023-05-23T11:13:04.764Z,9.711793
2023-05-23T11:14:04.849Z,9.711814
2023-05-23T11:15:04.747Z,9.711719
2023-05-23T11:16:04.941Z,9.711745
2023-05-23T11:17:04.820Z,9.711682
2023-05-23T11:18:04.768Z,9.711697
2023-05-23T11:19:04.765Z,9.711667
2023-05-23T11:20:04.719Z,9.711654
2023-05-23T11:21:04.724Z,9.711688
2023-05-23T11:22:06.429Z,9.711665
2023-05-23T11:23:05.690Z,9.711675
2023-05-23T11:24:07.367Z,9.711665
2023-05-23T11:25:04.689Z,9.711647
2023-05-23T11:26:04.675Z,9.711680
2023-05-23T11:27:04.664Z,9.711711
2023-05-23T11:28:04.655Z,9.711806
2023-05-23T11:29:04.653Z,9.711679
2023-05-23T11:30:04.647Z,9.711607
2023-05-23T11:31:04.626Z,9.711607
2023-05-23T11:32:05.059Z,9.711657
2023-05-23T11:33:04.656Z,9.711676
2023-05-23T11:34:04.600Z,9.711638
2023-05-23T11:35:05.428Z,9.711646
2023-05-23T11:36:04.621Z,9.711619
2023-05-23T11:37:04.582Z,9.711652
2023-05-23T11:38:04.572Z,9.711688
2023-05-23T11:39:04.580Z,9.711638
2023-05-23T11:40:04.582Z,9.711612
2023-05-23T11:41:04.572Z,9.711606
2023-05-23T11:42:04.579Z,9.711630
2023-05-23T11:43:07.894Z,9.711608
2023-05-23T11:44:38.877Z,9.711622
2023-05-23T11:45:04.533Z,9.711679
2023-05-23T11:46:04.560Z,9.711711
2023-05-23T11:47:04.512Z,9.711650
2023-05-23T11:48:04.540Z,9.711731
2023-05-23T11:49:04.523Z,9.711663
2023-05-23T11:50:04.482Z,9.711642
2023-05-23T11:51:04.487Z,9.711683
2023-05-23T11:52:04.506Z,9.711671
2023-05-23T11:53:04.567Z,9.711750
2023-05-23T11:54:04.457Z,9.711650
2023-05-23T11:55:04.455Z,9.711638
2023-05-23T11:56:05.387Z,9.711636
2023-05-23T11:57:05.428Z,9.711673
2023-05-23T11:58:06.379Z,9.711599
2023-05-23T11:59:04.405Z,9.711599
2023-05-23T12:00:08.401Z,9.711618
2023-05-23T12:01:05.382Z,9.711752
2023-05-23T12:02:04.435Z,9.711823
2023-05-23T12:03:04.410Z,9.711697
2023-05-23T12:04:04.526Z,9.711745
2023-05-23T12:05:04.954Z,9.711827
2023-05-23T12:06:04.381Z,9.711649
2023-05-23T12:07:04.401Z,9.711587
2023-05-23T12:08:04.390Z,9.711497
2023-05-23T12:09:04.341Z,9.711595
2023-05-23T12:10:04.325Z,9.711564
2023-05-23T12:11:04.324Z,9.711605
2023-05-23T12:12:04.964Z,9.711657
2023-05-23T12:13:05.893Z,9.711837
2023-05-23T12:14:04.309Z,9.711895
2023-05-23T12:15:04.313Z,9.712013
2023-05-23T12:16:05.165Z,9.711831
2023-05-23T12:17:04.264Z,9.711887
2023-05-23T12:18:05.283Z,9.711983
2023-05-23T12:19:04.293Z,9.711862
2023-05-23T12:20:04.262Z,9.712113
2023-05-23T12:21:04.226Z,9.712231
2023-05-23T12:22:04.245Z,9.712405
2023-05-23T12:23:04.223Z,9.711798
2023-05-23T12:24:04.218Z,9.711742
2023-05-23T12:25:04.224Z,9.711809
2023-05-23T12:26:04.195Z,9.711844
2023-05-23T12:30:12.153Z,9.714073
2023-05-23T12:31:12.278Z,9.714129
2023-05-23T12:32:12.914Z,9.711419
2023-05-23T12:33:12.114Z,9.711484
2023-05-23T12:34:12.130Z,9.711557
2023-05-23T12:35:12.132Z,9.711610
2023-05-23T12:36:12.116Z,9.711595
2023-05-23T12:38:14.163Z,9.711563
2023-05-23T12:39:12.074Z,9.711556
2023-05-23T12:40:12.061Z,9.711552
2023-05-23T12:41:12.067Z,9.711581
2023-05-23T12:42:12.040Z,9.711605
2023-05-23T12:43:12.038Z,9.711616
2023-05-23T12:44:12.070Z,9.711594
2023-05-23T12:45:12.020Z,9.711595
2023-05-23T12:46:12.025Z,9.711614